Time;durP1;ratioP1;P1;durP2;ratioP2;P2;SDS_P1;SDS_P2;PMS_P1;PMS_P2;Temp;Humidity;BMP_temperature;BMP_pressure;BME280_temperature;BME280_humidity;BME280_pressure;Samples;Min_cycle;Max_cycle;Signal;HPM_P1;HPM_P2
2022/03/04 00:00:18;;;;;;;;;;;;;;;-0.44;75.93;101037.88;5037104;28;1894;-87
2022/03/04 00:02:43;;;;;;;;;;;;;;;-0.50;76.17;101041.31;5036392;28;1325;-88
2022/03/04 00:05:08;;;;;;;;;;;;;;;-0.60;76.03;101040.84;5036288;28;1357;-88
2022/03/04 00:07:33;;;;;;;;;;;;;;;-0.61;76.08;101042.72;5053947;28;896;-88
2022/03/04 00:09:59;;;;;;;;;;;;;;;-0.66;76.16;101034.38;5036059;28;1354;-88
2022/03/04 00:12:24;;;;;;;;;;;;;;;-0.73;76.07;101038.88;5035815;28;1694;-88
2022/03/04 00:14:49;;;;;;;;;;;;;;;-0.68;76.10;101044.50;5036472;28;1272;-88
2022/03/04 00:17:14;;;;;;;;;;;;;;;-0.85;76.16;101049.31;5036643;28;1222;-88
2022/03/04 00:19:39;;;;;;;;;;;;;;;-0.83;76.11;101047.25;5054816;28;1886;-88
2022/03/04 00:22:05;;;;;;;;;;;;;;;-1.13;76.34;101040.38;5036930;28;1165;-88
2022/03/04 00:24:30;;;;;;;;;;;;;;;-0.99;76.59;101050.22;5036833;28;1270;-87
2022/03/04 00:26:55;;;;;;;;;;;;;;;-0.96;76.52;101051.69;5036812;28;1282;-88
2022/03/04 00:29:21;;;;;;;;;;;;;;;-0.96;76.70;101049.00;5037180;28;1257;-88
2022/03/04 00:31:46;;;;;;;;;;;;;;;-0.94;76.25;101052.34;5054834;28;1626;-88
2022/03/04 00:34:11;;;;;;;;;;;;;;;-1.03;76.12;101059.69;5054309;28;1224;-88
2022/03/04 00:36:40;;;;;;;;;;;;;;;-1.01;76.65;101054.94;5036460;28;1258;-88
2022/03/04 00:39:10;;;;;;;;;;;;;;;-1.11;76.14;101053.59;5037211;28;1894;-88
2022/03/04 00:41:55;;;;;;;;;;;;;;;-1.17;76.57;101047.97;5036483;28;1624;-88
2022/03/04 00:44:23;;;;;;;;;;;;;;;-1.07;76.78;101046.81;5016849;28;1317;-88
2022/03/04 00:46:49;;;;;;;;;;;;;;;-1.18;76.58;101046.28;5017253;28;1208;-87
2022/03/04 00:49:33;;;;;;;;;;;;;;;;;;;;;
2022/03/04 00:51:58;;;;;;;;;;;;;;;-1.01;76.97;101040.66;5054664;28;537;-88
2022/03/04 00:54:24;;;;;;;;;;;;;;;-1.00;76.97;101050.41;5036256;28;1302;-88
2022/03/04 00:57:05;;;;;;;;;;;;;;;-1.03;77.06;101045.44;5037869;28;992;-88
2022/03/04 00:59:33;;;;;;;;;;;;;;;-1.11;76.75;101034.81;5036456;28;1950;-88
2022/03/04 01:02:04;;;;;;;;;;;;;;;-1.13;77.13;101040.38;5037366;28;1391;-88
2022/03/04 01:07:37;;;;;;;;;;;;;;;;;;;;;
2022/03/04 01:10:04;;;;;;;;;;;;;;;-1.16;77.25;101038.88;5058133;28;1709;-87
2022/03/04 01:12:30;;;;;;;;;;;;;;;-1.20;77.10;101043.00;5040728;28;1324;-88
2022/03/04 01:14:55;;;;;;;;;;;;;;;-1.21;77.43;101052.06;5058031;28;1607;-88
2022/03/04 01:17:21;;;;;;;;;;;;;;;-1.24;77.08;101047.06;5040736;28;1359;-88
2022/03/04 01:19:46;;;;;;;;;;;;;;;-1.23;77.36;101046.03;5039956;28;1906;-88
2022/03/04 01:22:11;;;;;;;;;;;;;;;-1.30;77.23;101047.00;5057270;28;1015;-88
2022/03/04 01:24:56;;;;;;;;;;;;;;;-1.25;77.47;101045.41;5038405;28;1738;-88
2022/03/04 01:27:22;;;;;;;;;;;;;;;-1.37;77.34;101046.09;5038889;28;1318;-89
2022/03/04 01:32:42;;;;;;;;;;;;;;;-1.50;77.37;101044.06;5047573;28;1208;-89
2022/03/04 01:35:13;;;;;;;;;;;;;;;-1.44;77.64;101045.16;5037973;28;1845;-88
2022/03/04 01:37:39;;;;;;;;;;;;;;;-1.42;77.56;101049.34;5039115;28;1942;-88
2022/03/04 01:40:06;;;;;;;;;;;;;;;-1.38;77.67;101049.81;5039250;28;1938;-88
2022/03/04 01:42:31;;;;;;;;;;;;;;;-1.30;77.50;101047.81;5039558;28;1814;-89
2022/03/04 01:44:56;;;;;;;;;;;;;;;-1.32;77.10;101044.50;5039029;28;1209;-88
2022/03/04 01:47:22;;;;;;;;;;;;;;;-1.35;77.49;101041.34;5038689;28;1285;-88
2022/03/04 01:49:50;;;;;;;;;;;;;;;-1.45;77.63;101044.34;5038850;28;1864;-88
2022/03/04 01:52:16;;;;;;;;;;;;;;;-1.48;77.69;101047.41;5038828;28;1333;-88
2022/03/04 01:54:41;;;;;;;;;;;;;;;-1.50;77.49;101036.03;5038505;28;1319;-88
2022/03/04 01:57:13;;;;;;;;;;;;;;;-1.52;77.77;101041.56;5038612;28;1908;-88
2022/03/04 01:59:38;;;;;;;;;;;;;;;-1.56;77.81;101039.47;5038058;28;1960;-88
2022/03/04 02:02:03;;;;;;;;;;;;;;;-1.43;77.55;101044.16;5038058;28;1165;-88
2022/03/04 02:04:35;;;;;;;;;;;;;;;-1.41;77.74;101042.09;5038293;28;1306;-88
2022/03/04 02:07:00;;;;;;;;;;;;;;;-1.35;77.87;101038.66;5038382;28;1204;-88
2022/03/04 02:09:25;;;;;;;;;;;;;;;-1.32;77.50;101047.19;5037080;28;1324;-88
2022/03/04 02:11:51;;;;;;;;;;;;;;;-1.41;77.46;101042.09;5037895;28;1395;-88
2022/03/04 02:14:16;;;;;;;;;;;;;;;-1.38;77.76;101041.75;5037215;28;1691;-88
2022/03/04 02:16:52;;;;;;;;;;;;;;;-1.47;77.65;101056.28;5037928;28;1699;-88
2022/03/04 02:19:18;;;;;;;;;;;;;;;-1.63;77.43;101052.81;5037648;28;1890;-88
2022/03/04 02:21:49;;;;;;;;;;;;;;;-1.73;77.76;101054.13;5037951;28;1212;-88
2022/03/04 02:24:14;;;;;;;;;;;;;;;-1.78;77.80;101049.28;5037638;28;1288;-88
2022/03/04 02:26:39;;;;;;;;;;;;;;;-1.97;78.08;101040.00;5037891;28;1203;-88
2022/03/04 02:29:04;;;;;;;;;;;;;;;-1.85;78.39;101042.19;5037878;28;1318;-88
2022/03/04 02:31:29;;;;;;;;;;;;;;;-1.90;78.38;101040.06;5038289;28;1050;-87
2022/03/04 02:33:55;;;;;;;;;;;;;;;-1.74;78.34;101050.59;5037507;28;1314;-88
2022/03/04 02:36:20;;;;;;;;;;;;;;;-1.76;78.32;101041.91;5037817;28;1331;-88
2022/03/04 02:38:46;;;;;;;;;;;;;;;-1.71;78.64;101042.19;5037938;28;1898;-88
2022/03/04 02:41:11;;;;;;;;;;;;;;;-1.73;78.24;101046.91;5038282;28;1196;-88
2022/03/04 02:43:36;;;;;;;;;;;;;;;-1.69;78.58;101048.19;5037905;28;1675;-87
2022/03/04 02:46:01;;;;;;;;;;;;;;;-1.60;78.31;101048.91;5037318;28;1353;-88
2022/03/04 02:48:26;;;;;;;;;;;;;;;-1.63;78.49;101057.34;5037482;28;1507;-88
2022/03/04 02:50:52;;;;;;;;;;;;;;;-1.79;78.86;101054.88;5037678;28;1132;-88
2022/03/04 02:53:17;;;;;;;;;;;;;;;-1.71;78.86;101062.81;5037145;28;1702;-88
2022/03/04 02:55:42;;;;;;;;;;;;;;;-1.57;78.41;101065.47;5037172;28;1338;-88
2022/03/04 02:58:07;;;;;;;;;;;;;;;-1.58;78.39;101079.06;5037549;28;1305;-88
2022/03/04 03:00:32;;;;;;;;;;;;;;;-1.72;78.95;101077.25;5037728;28;1902;-88
2022/03/04 03:02:58;;;;;;;;;;;;;;;-1.71;78.70;101077.06;5037466;28;1365;-88
2022/03/04 03:05:23;;;;;;;;;;;;;;;-1.80;78.45;101072.81;5038445;28;1739;-88
2022/03/04 03:07:48;;;;;;;;;;;;;;;-1.84;79.04;101070.69;5038454;28;1642;-88
2022/03/04 03:10:13;;;;;;;;;;;;;;;-1.85;78.76;101064.47;5038785;28;1541;-87
2022/03/04 03:12:40;;;;;;;;;;;;;;;-1.77;79.14;101068.91;5038047;28;1643;-88
2022/03/04 03:15:05;;;;;;;;;;;;;;;-1.77;78.86;101069.75;5038365;28;1651;-88
2022/03/04 03:17:31;;;;;;;;;;;;;;;-1.90;78.78;101069.56;5038281;28;1697;-88
2022/03/04 03:19:56;;;;;;;;;;;;;;;-1.86;79.14;101075.38;5037979;28;1963;-88
2022/03/04 03:22:21;;;;;;;;;;;;;;;-2.07;79.09;101081.50;5081509;23;2064;-88
2022/03/04 03:24:46;;;;;;;;;;;;;;;-2.17;79.39;101079.09;5084014;28;1408;-88
2022/03/04 03:27:12;;;;;;;;;;;;;;;-2.12;79.50;101084.72;5056910;28;1204;-89
2022/03/04 03:29:37;;;;;;;;;;;;;;;-1.99;79.13;101084.94;5056777;28;1157;-91
2022/03/04 03:32:02;;;;;;;;;;;;;;;-2.05;78.99;101076.78;5056392;28;1322;-89
2022/03/04 03:34:27;;;;;;;;;;;;;;;-2.22;79.27;101083.34;5056051;28;1177;-90
2022/03/04 03:36:53;;;;;;;;;;;;;;;-2.37;79.16;101083.31;5064646;28;1686;-88
2022/03/04 03:39:18;;;;;;;;;;;;;;;-2.15;79.31;101084.28;5076242;28;1977;-88
2022/03/04 03:41:43;;;;;;;;;;;;;;;-2.02;79.46;101087.97;5076480;28;1244;-88
2022/03/04 03:44:08;;;;;;;;;;;;;;;-2.02;79.03;101087.97;5076384;28;1408;-88
2022/03/04 03:46:35;;;;;;;;;;;;;;;-2.19;79.22;101085.66;5067079;28;994;-89
2022/03/04 03:49:00;;;;;;;;;;;;;;;-2.21;79.21;101088.50;5093876;28;1143;-89
2022/03/04 03:51:25;;;;;;;;;;;;;;;-2.23;79.50;101093.25;5092693;28;1677;-90
2022/03/04 03:53:50;;;;;;;;;;;;;;;-2.21;79.45;101085.00;5093184;28;1680;-90
2022/03/04 03:56:15;;;;;;;;;;;;;;;-2.23;79.42;101087.88;5093927;28;1344;-88
2022/03/04 03:58:41;;;;;;;;;;;;;;;-2.31;79.34;101094.16;5075935;28;1902;-90
2022/03/04 04:01:06;;;;;;;;;;;;;;;-2.27;79.53;101097.28;5075916;28;944;-91
2022/03/04 04:03:31;;;;;;;;;;;;;;;-2.40;79.50;101097.09;5093463;28;1286;-88
2022/03/04 04:05:56;;;;;;;;;;;;;;;-2.35;79.46;101089.31;5075905;28;1054;-89
2022/03/04 04:08:22;;;;;;;;;;;;;;;-2.17;79.66;101092.50;5076350;28;963;-90
2022/03/04 04:10:47;;;;;;;;;;;;;;;-2.10;79.34;101098.78;5077337;28;1581;-88
2022/03/04 04:13:12;;;;;;;;;;;;;;;-2.10;79.09;101103.31;5076264;28;1274;-92
2022/03/04 04:15:37;;;;;;;;;;;;;;;-2.25;79.23;101106.00;5075588;28;989;-89
2022/03/04 04:18:03;;;;;;;;;;;;;;;-2.36;79.54;101098.38;5093523;28;1326;-90
2022/03/04 04:20:28;;;;;;;;;;;;;;;-2.19;79.31;101104.41;5093637;28;1964;-90
2022/03/04 04:22:53;;;;;;;;;;;;;;;-2.17;79.29;101107.75;5093540;28;1212;-90
2022/03/04 04:25:18;;;;;;;;;;;;;;;-2.21;79.76;101107.28;5094009;28;940;-91
2022/03/04 04:27:43;;;;;;;;;;;;;;;-2.27;79.35;101108.00;5075893;28;972;-91
2022/03/04 04:30:09;;;;;;;;;;;;;;;-2.24;79.49;101102.28;5075698;28;1410;-91
2022/03/04 04:32:34;;;;;;;;;;;;;;;-2.30;79.39;101093.09;5077851;28;1300;-90
2022/03/04 04:34:59;;;;;;;;;;;;;;;-2.41;79.75;101098.94;5078942;28;952;-90
2022/03/04 04:37:24;;;;;;;;;;;;;;;-2.40;79.55;101102.44;5097185;28;1711;-91
2022/03/04 04:39:49;;;;;;;;;;;;;;;-2.56;79.83;101108.78;5078799;28;1894;-91
2022/03/04 04:42:14;;;;;;;;;;;;;;;-2.51;79.90;101095.66;5078977;28;1250;-91
2022/03/04 04:44:39;;;;;;;;;;;;;;;-2.50;80.00;101100.00;5078927;28;1337;-91
2022/03/04 04:47:06;;;;;;;;;;;;;;;-2.51;79.89;101101.03;5078676;28;1427;-91
2022/03/04 04:49:34;;;;;;;;;;;;;;;-2.52;79.87;101096.69;5078762;28;1282;-91
2022/03/04 04:51:59;;;;;;;;;;;;;;;-2.55;80.18;101093.53;5096606;28;1625;-88
2022/03/04 04:54:24;;;;;;;;;;;;;;;-2.63;79.82;101096.25;5078774;28;1157;-91
2022/03/04 04:56:49;;;;;;;;;;;;;;;-2.62;79.87;101098.75;5078798;28;1642;-90
2022/03/04 04:59:14;;;;;;;;;;;;;;;-2.79;79.86;101095.38;5078772;28;1945;-90
2022/03/04 05:01:39;;;;;;;;;;;;;;;-2.92;80.41;101095.16;5080749;28;1465;-90
2022/03/04 05:04:06;;;;;;;;;;;;;;;-2.87;80.43;101084.72;5079204;28;1693;-90
2022/03/04 05:06:31;;;;;;;;;;;;;;;-2.77;80.15;101096.03;5078983;28;1312;-91
2022/03/04 05:08:56;;;;;;;;;;;;;;;-2.87;80.18;101099.97;5079237;28;990;-86
2022/03/04 05:11:21;;;;;;;;;;;;;;;-2.73;80.49;101097.38;5096153;28;1597;-91
2022/03/04 05:13:47;;;;;;;;;;;;;;;-2.70;80.12;101099.66;5078255;28;1356;-90
2022/03/04 05:16:13;;;;;;;;;;;;;;;-2.63;80.11;101101.63;5079054;28;1348;-89
2022/03/04 05:18:38;;;;;;;;;;;;;;;-2.57;80.35;101108.97;5079133;28;1893;-88
2022/03/04 05:21:03;;;;;;;;;;;;;;;-2.47;79.80;101114.91;5078575;28;1024;-89
2022/03/04 05:26:12;;;;;;;;;;;;;;;-2.42;80.08;101116.03;5097202;28;654;-90
2022/03/04 05:28:37;;;;;;;;;;;;;;;-2.63;79.77;101115.84;5078269;28;1245;-90
2022/03/04 05:31:02;;;;;;;;;;;;;;;-2.50;79.95;101123.31;5078645;28;908;-90
2022/03/04 05:33:44;;;;;;;;;;;;;;;-2.35;80.10;101126.84;5078754;28;1334;-89
2022/03/04 05:36:09;;;;;;;;;;;;;;;-2.21;80.03;101123.34;5078945;28;1653;-89
2022/03/04 05:38:34;;;;;;;;;;;;;;;-2.19;79.99;101125.88;5078493;28;1897;-89
2022/03/04 05:40:59;;;;;;;;;;;;;;;-2.18;79.86;101117.66;5096389;28;1710;-89
2022/03/04 05:43:24;;;;;;;;;;;;;;;-2.16;80.43;101120.16;5078593;28;1251;-88
2022/03/04 05:45:51;;;;;;;;;;;;;;;-2.36;80.48;101120.66;5078842;28;967;-88
2022/03/04 05:48:16;;;;;;;;;;;;;;;-2.37;80.87;101127.03;5078682;28;1215;-91
2022/03/04 05:50:41;;;;;;;;;;;;;;;-2.20;80.62;101134.91;5078917;28;979;-88
2022/03/04 05:53:06;;;;;;;;;;;;;;;-2.18;80.63;101132.91;5078875;28;1241;-91
2022/03/04 05:55:34;;;;;;;;;;;;;;;-2.23;80.96;101141.50;5078641;28;1213;-90
2022/03/04 05:58:02;;;;;;;;;;;;;;;-2.09;80.76;101142.53;5078940;28;1231;-89
2022/03/04 06:00:27;;;;;;;;;;;;;;;-2.10;80.71;101141.69;5097158;28;1957;-88
2022/03/04 06:03:00;;;;;;;;;;;;;;;-2.01;80.94;101150.50;5097642;28;1174;-89
2022/03/04 06:05:28;;;;;;;;;;;;;;;-2.03;80.80;101147.16;5079025;28;1183;-88
2022/03/04 06:07:53;;;;;;;;;;;;;;;-1.90;81.21;101150.06;5079103;28;1304;-89
2022/03/04 06:10:18;;;;;;;;;;;;;;;-1.87;81.24;101140.81;5078559;28;1007;-88
2022/03/04 06:12:43;;;;;;;;;;;;;;;-1.83;80.92;101152.84;5078952;28;1279;-88
2022/03/04 06:15:09;;;;;;;;;;;;;;;-1.81;81.02;101153.50;5079182;28;1022;-91
2022/03/04 06:17:34;;;;;;;;;;;;;;;-1.78;80.89;101151.25;5078278;28;1191;-91
2022/03/04 06:19:59;;;;;;;;;;;;;;;-1.82;80.95;101146.47;5078292;28;1961;-88
2022/03/04 06:22:25;;;;;;;;;;;;;;;-1.77;81.28;101138.69;5078121;28;1352;-88
2022/03/04 06:24:54;;;;;;;;;;;;;;;-1.81;81.13;101146.28;5079060;28;1302;-88
2022/03/04 06:27:19;;;;;;;;;;;;;;;-1.73;81.38;101142.66;5083106;28;1189;-89
2022/03/04 06:29:44;;;;;;;;;;;;;;;-1.74;81.40;101151.75;5088757;28;1163;-90
2022/03/04 06:32:09;;;;;;;;;;;;;;;-1.77;81.09;101142.19;5087486;28;1318;-90
2022/03/04 06:34:35;;;;;;;;;;;;;;;-1.72;81.08;101149.72;5096850;28;896;-90
2022/03/04 06:37:00;;;;;;;;;;;;;;;-1.71;81.27;101152.22;5078754;28;1334;-90
2022/03/04 06:39:25;;;;;;;;;;;;;;;-1.61;80.91;101159.97;5078965;28;1945;-90
2022/03/04 06:41:50;;;;;;;;;;;;;;;-1.52;80.94;101161.53;5078830;28;1709;-91
2022/03/04 06:44:16;;;;;;;;;;;;;;;-1.48;80.72;101152.09;5078379;28;1294;-90
2022/03/04 06:46:41;;;;;;;;;;;;;;;-1.44;80.45;101148.00;5078420;28;1344;-92
2022/03/04 06:49:10;;;;;;;;;;;;;;;-1.48;80.66;101154.78;5078424;28;1273;-90
2022/03/04 06:51:35;;;;;;;;;;;;;;;-1.54;80.32;101163.59;5079127;28;1283;-88
2022/03/04 06:54:00;;;;;;;;;;;;;;;-1.48;80.33;101162.00;5078150;28;1169;-88
2022/03/04 06:56:26;;;;;;;;;;;;;;;-1.50;79.95;101158.69;5080020;28;1168;-91
2022/03/04 06:58:51;;;;;;;;;;;;;;;-1.48;79.85;101167.38;5079329;28;1894;-91
2022/03/04 07:01:16;;;;;;;;;;;;;;;-1.37;79.76;101167.75;5079898;28;1191;-90
2022/03/04 07:03:42;;;;;;;;;;;;;;;-1.29;79.88;101161.44;5078543;28;1303;-92
2022/03/04 07:06:08;;;;;;;;;;;;;;;-1.21;79.66;101172.94;5078316;28;1353;-92
2022/03/04 07:08:36;;;;;;;;;;;;;;;-1.15;79.37;101168.66;5080031;28;1072;-89
2022/03/04 07:11:01;;;;;;;;;;;;;;;-1.23;79.35;101169.59;5081650;28;1394;-88
2022/03/04 07:13:27;;;;;;;;;;;;;;;-1.31;79.20;101176.91;5081313;28;1200;-91
2022/03/04 07:15:52;;;;;;;;;;;;;;;-1.30;79.20;101184.78;5081478;28;1192;-89
2022/03/04 07:18:18;;;;;;;;;;;;;;;-1.14;79.07;101173.00;5079354;28;1198;-88
2022/03/04 07:20:43;;;;;;;;;;;;;;;-1.07;78.66;101181.97;5081647;28;1949;-89
2022/03/04 07:23:08;;;;;;;;;;;;;;;-1.01;78.41;101180.38;5081233;28;1273;-91
2022/03/04 07:25:33;;;;;;;;;;;;;;;-1.01;78.81;101185.75;5081809;28;1145;-89
2022/03/04 07:27:59;;;;;;;;;;;;;;;-0.95;78.49;101190.38;5080968;28;1175;-89
2022/03/04 07:30:24;;;;;;;;;;;;;;;-0.95;78.49;101198.44;5081597;28;1311;-88
2022/03/04 07:32:49;;;;;;;;;;;;;;;-0.95;78.16;101196.59;5082287;28;1310;-89
2022/03/04 07:35:15;;;;;;;;;;;;;;;-0.99;77.85;101197.16;5084427;28;1226;-89
2022/03/04 07:37:41;;;;;;;;;;;;;;;-1.04;78.16;101189.66;5083246;28;1298;-91
2022/03/04 07:40:07;;;;;;;;;;;;;;;-0.96;77.96;101196.78;5083162;28;1967;-92
2022/03/04 07:42:32;;;;;;;;;;;;;;;-0.91;77.99;101197.03;5081404;28;1351;-90
2022/03/04 07:44:57;;;;;;;;;;;;;;;-0.81;77.35;101195.72;5082345;28;1200;-90
2022/03/04 07:47:22;;;;;;;;;;;;;;;-0.78;77.40;101203.41;5081175;28;1172;-90
2022/03/04 07:49:48;;;;;;;;;;;;;;;-0.78;77.27;101202.59;5080984;28;1152;-90
2022/03/04 07:52:13;;;;;;;;;;;;;;;-0.86;77.53;101205.38;5079741;28;1266;-89
2022/03/04 07:54:38;;;;;;;;;;;;;;;-0.91;77.24;101208.63;5079538;28;1306;-89
2022/03/04 07:57:04;;;;;;;;;;;;;;;-0.99;77.30;101202.53;5077920;28;1075;-90
2022/03/04 07:59:29;;;;;;;;;;;;;;;-1.00;77.46;101198.16;5078969;28;1961;-89
2022/03/04 08:01:55;;;;;;;;;;;;;;;-1.01;77.39;101199.19;5079193;28;1420;-89
2022/03/04 08:04:20;;;;;;;;;;;;;;;-1.02;77.59;101195.66;5077733;28;1288;-89
2022/03/04 08:06:46;;;;;;;;;;;;;;;-0.99;77.18;101214.09;5081093;28;1235;-90
2022/03/04 08:09:11;;;;;;;;;;;;;;;-1.04;77.03;101221.06;5085657;28;1325;-90
2022/03/04 08:11:37;;;;;;;;;;;;;;;-1.06;77.35;101215.03;5083137;28;1353;-89
2022/03/04 08:14:02;;;;;;;;;;;;;;;-1.00;77.24;101203.53;5082645;28;1354;-89
2022/03/04 08:16:29;;;;;;;;;;;;;;;-0.97;77.22;101209.38;5081884;28;1199;-91
2022/03/04 08:18:54;;;;;;;;;;;;;;;-0.95;77.10;101219.94;5082817;28;1893;-89
2022/03/04 08:21:20;;;;;;;;;;;;;;;-0.96;77.03;101208.38;5083438;28;1194;-89
2022/03/04 08:23:45;;;;;;;;;;;;;;;-0.97;76.90;101209.38;5081262;28;1283;-91
2022/03/04 08:26:10;;;;;;;;;;;;;;;-0.93;76.81;101207.97;5081240;28;1481;-89
2022/03/04 08:29:07;;;;;;;;;;;;;;;-0.92;76.71;101208.81;5082323;28;1451;-90
2022/03/04 08:31:32;;;;;;;;;;;;;;;-0.94;76.59;101209.03;5081733;28;1230;-89
2022/03/04 08:33:57;;;;;;;;;;;;;;;-0.99;76.65;101208.72;5081936;28;1210;-89
2022/03/04 08:36:22;;;;;;;;;;;;;;;-1.01;76.45;101210.75;5082578;28;1168;-90
2022/03/04 08:38:47;;;;;;;;;;;;;;;-0.91;76.78;101208.63;5080097;28;1897;-89
2022/03/04 08:41:13;;;;;;;;;;;;;;;-0.86;76.29;101214.28;5080094;28;1308;-89
2022/03/04 08:43:39;;;;;;;;;;;;;;;-0.87;76.43;101203.72;5079910;28;1422;-89
2022/03/04 08:46:04;;;;;;;;;;;;;;;-0.91;76.40;101207.78;5079892;28;1501;-89
2022/03/04 08:48:29;;;;;;;;;;;;;;;-0.81;76.36;101213.69;5079859;28;1206;-90
2022/03/04 08:50:54;;;;;;;;;;;;;;;-0.78;76.00;101211.47;5080617;28;1278;-91
2022/03/04 08:53:20;;;;;;;;;;;;;;;-0.79;76.06;101219.72;5080488;28;1343;-89
2022/03/04 08:55:45;;;;;;;;;;;;;;;-0.83;75.87;101215.75;5080556;28;1228;-89
2022/03/04 08:58:11;;;;;;;;;;;;;;;-0.83;75.55;101211.19;5079787;28;1196;-88
2022/03/04 09:00:36;;;;;;;;;;;;;;;-0.78;75.73;101219.53;5079529;28;1901;-89
2022/03/04 09:03:01;;;;;;;;;;;;;;;-0.66;75.72;101221.72;5079775;28;1251;-89
2022/03/04 09:05:26;;;;;;;;;;;;;;;-0.57;75.44;101213.34;5079464;28;1156;-89
2022/03/04 09:07:52;;;;;;;;;;;;;;;-0.53;75.43;101216.50;5082114;28;1219;-89
2022/03/04 09:10:17;;;;;;;;;;;;;;;-0.53;75.52;101211.97;5080317;28;964;-88
2022/03/04 09:12:42;;;;;;;;;;;;;;;-0.51;75.45;101212.59;5079233;28;1261;-89
2022/03/04 09:15:08;;;;;;;;;;;;;;;-0.49;75.30;101217.78;5079998;28;1453;-89
2022/03/04 09:17:33;;;;;;;;;;;;;;;-0.56;75.59;101220.41;5078569;28;1347;-89
2022/03/04 09:19:58;;;;;;;;;;;;;;;-0.54;75.74;101221.06;5079185;28;1894;-89
2022/03/04 12:15:27;;;;;;;;;;;;;;;1.70;72.52;101179.28;5075399;28;1176;-90
2022/03/04 12:18:03;;;;;;;;;;;;;;;1.80;72.42;101179.72;5058395;28;1327;-90
2022/03/04 12:20:28;;;;;;;;;;;;;;;1.94;72.43;101175.19;5059226;28;1902;-90
2022/03/04 12:22:57;;;;;;;;;;;;;;;2.07;72.36;101174.31;5059785;28;1209;-92
2022/03/04 12:25:42;;;;;;;;;;;;;;;2.10;71.94;101173.94;5077025;28;1114;-91
2022/03/04 12:28:16;;;;;;;;;;;;;;;2.13;71.40;101168.09;5057937;28;1311;-90
2022/03/04 12:30:41;;;;;;;;;;;;;;;2.21;71.58;101168.69;5058694;28;1108;-90
2022/03/04 12:33:07;;;;;;;;;;;;;;;2.26;71.14;101170.78;5059280;28;1198;-90
2022/03/04 12:35:32;;;;;;;;;;;;;;;2.28;71.04;101172.25;5057810;28;1175;-89
2022/03/04 12:38:00;;;;;;;;;;;;;;;2.25;70.89;101175.34;5058913;28;1234;-90
2022/03/04 12:40:25;;;;;;;;;;;;;;;2.31;71.67;101181.78;5074622;28;1862;-88
2022/03/04 12:42:54;;;;;;;;;;;;;;;2.39;71.15;101178.88;5056829;28;1281;-90
2022/03/04 12:45:19;;;;;;;;;;;;;;;2.28;71.25;101188.47;5056663;28;1207;-90
2022/03/04 12:47:45;;;;;;;;;;;;;;;2.37;70.56;101177.44;5061385;28;1335;-90
2022/03/04 12:50:10;;;;;;;;;;;;;;;2.43;70.84;101177.41;5063862;28;1308;-90
2022/03/04 12:52:35;;;;;;;;;;;;;;;2.48;70.60;101177.59;5078513;28;1210;-89
2022/03/04 12:55:02;;;;;;;;;;;;;;;2.51;70.04;101185.28;5063208;28;1153;-90
2022/03/04 12:57:27;;;;;;;;;;;;;;;2.56;70.36;101176.53;5061347;28;1225;-91
2022/03/04 12:59:52;;;;;;;;;;;;;;;2.60;69.97;101180.50;5062084;28;1898;-89
2022/03/04 13:02:17;;;;;;;;;;;;;;;2.63;69.74;101183.63;5062704;28;956;-89
2022/03/04 13:04:55;;;;;;;;;;;;;;;2.71;69.71;101181.72;5062193;28;1358;-89
2022/03/04 13:07:20;;;;;;;;;;;;;;;2.66;69.46;101180.47;5060713;28;1149;-89
2022/03/04 13:09:47;;;;;;;;;;;;;;;2.68;69.55;101182.97;5062360;28;1235;-90
2022/03/04 13:12:12;;;;;;;;;;;;;;;2.64;69.63;101187.97;5063290;28;1212;-90
2022/03/04 13:14:37;;;;;;;;;;;;;;;2.79;69.28;101189.59;5063189;28;1401;-90
2022/03/04 13:17:10;;;;;;;;;;;;;;;3.16;68.57;101186.13;5065092;28;1227;-90
2022/03/04 13:19:36;;;;;;;;;;;;;;;3.76;67.38;101190.16;5065034;28;1906;-90
2022/03/04 13:22:03;;;;;;;;;;;;;;;3.82;66.54;101191.16;5087342;28;1011;-90
2022/03/04 13:24:31;;;;;;;;;;;;;;;3.43;66.95;101184.94;5066530;28;1338;-90
2022/03/04 13:26:59;;;;;;;;;;;;;;;4.20;65.97;101182.94;5082805;28;1019;-90
2022/03/04 13:29:30;;;;;;;;;;;;;;;5.45;63.37;101183.38;5064141;28;1248;-90
2022/03/04 13:32:03;;;;;;;;;;;;;;;6.14;61.94;101177.34;5066034;28;1362;-90
2022/03/04 13:34:29;;;;;;;;;;;;;;;7.15;58.55;101181.50;5082867;28;1211;-89
2022/03/04 13:36:56;;;;;;;;;;;;;;;6.56;59.41;101185.38;5065055;28;1180;-90
2022/03/04 13:39:26;;;;;;;;;;;;;;;5.97;60.48;101179.91;5065599;28;1952;-90
2022/03/04 13:42:08;;;;;;;;;;;;;;;6.75;60.19;101182.31;5067933;28;1284;-90
2022/03/04 13:44:33;;;;;;;;;;;;;;;7.92;57.41;101170.97;5063819;28;1298;-90
2022/03/04 13:47:06;;;;;;;;;;;;;;;8.02;56.67;101175.78;5081677;28;1071;-90
2022/03/04 13:49:42;;;;;;;;;;;;;;;9.24;54.52;101176.47;5060615;28;1352;-88
2022/03/04 13:52:07;;;;;;;;;;;;;;;8.24;54.67;101174.81;5057613;28;1401;-87
2022/03/04 13:54:56;;;;;;;;;;;;;;;7.13;56.05;101168.16;5056890;28;1271;-87
2022/03/04 13:57:32;;;;;;;;;;;;;;;6.06;58.35;101174.97;5058463;28;1202;-89
2022/03/04 13:59:59;;;;;;;;;;;;;;;5.64;58.82;101177.69;5059704;28;1887;-90
2022/03/04 14:02:26;;;;;;;;;;;;;;;5.59;59.45;101169.41;5060689;28;1296;-89
2022/03/04 14:04:55;;;;;;;;;;;;;;;5.70;59.09;101157.72;5077045;28;1224;-90
2022/03/04 14:07:21;;;;;;;;;;;;;;;5.43;59.88;101156.50;5060293;28;1307;-90
2022/03/04 14:09:48;;;;;;;;;;;;;;;5.03;60.43;101158.06;5056581;28;1386;-90
2022/03/04 14:12:14;;;;;;;;;;;;;;;4.71;61.29;101160.09;5051408;28;1313;-88
2022/03/04 14:14:39;;;;;;;;;;;;;;;4.42;61.40;101156.25;5049363;28;1223;-90
2022/03/04 14:17:05;;;;;;;;;;;;;;;4.44;61.76;101156.84;5057285;28;1176;-90
2022/03/04 14:19:30;;;;;;;;;;;;;;;5.25;61.29;101145.66;5048123;28;1949;-90
2022/03/04 14:21:55;;;;;;;;;;;;;;;5.69;59.77;101144.41;5055882;28;1226;-90
2022/03/04 14:24:20;;;;;;;;;;;;;;;5.89;59.31;101131.34;5068200;28;1245;-90
2022/03/04 14:26:45;;;;;;;;;;;;;;;5.60;59.54;101134.94;5052275;28;1631;-90
2022/03/04 14:29:13;;;;;;;;;;;;;;;5.27;60.01;101135.41;5058295;28;1259;-90
2022/03/04 14:31:38;;;;;;;;;;;;;;;5.80;59.90;101134.59;5061221;28;1240;-91
2022/03/04 14:34:03;;;;;;;;;;;;;;;6.62;58.14;101132.78;5058448;28;1273;-88
2022/03/04 14:36:29;;;;;;;;;;;;;;;7.68;55.53;101121.22;5056844;28;1758;-89
2022/03/04 14:38:54;;;;;;;;;;;;;;;8.07;54.28;101124.91;5056201;28;1979;-89
2022/03/04 14:41:19;;;;;;;;;;;;;;;8.32;53.60;101129.94;5088870;28;1812;-89
2022/03/04 14:43:45;;;;;;;;;;;;;;;7.78;54.00;101124.13;5073710;28;1279;-89
2022/03/04 14:46:10;;;;;;;;;;;;;;;6.98;55.18;101132.44;5059305;28;1218;-89
2022/03/04 14:48:45;;;;;;;;;;;;;;;5.96;56.67;101126.63;5078099;28;1558;-89
2022/03/04 14:51:10;;;;;;;;;;;;;;;6.21;56.83;101126.41;5075154;28;844;-89
2022/03/04 14:53:35;;;;;;;;;;;;;;;7.40;55.16;101124.81;5056640;28;1284;-88
2022/03/04 14:56:00;;;;;;;;;;;;;;;7.81;54.21;101131.84;5056516;28;1309;-88
2022/03/04 14:58:26;;;;;;;;;;;;;;;7.98;54.28;101126.38;5043464;28;1341;-89
2022/03/04 15:00:53;;;;;;;;;;;;;;;8.19;52.70;101122.88;5047538;28;1950;-89
2022/03/04 15:03:37;;;;;;;;;;;;;;;7.44;53.89;101133.34;5052473;28;1437;-89
2022/03/04 15:06:18;;;;;;;;;;;;;;;6.37;55.08;101142.03;5075017;28;1238;-90
2022/03/04 15:08:45;;;;;;;;;;;;;;;5.65;57.11;101129.63;5041334;28;1334;-90
2022/03/04 15:11:11;;;;;;;;;;;;;;;5.95;56.18;101129.59;5054946;28;1685;-88
2022/03/04 15:13:36;;;;;;;;;;;;;;;5.61;57.33;101126.53;5055752;28;1670;-88
2022/03/04 15:16:01;;;;;;;;;;;;;;;5.58;57.71;101126.19;5063623;28;1359;-89
2022/03/04 15:18:26;;;;;;;;;;;;;;;5.45;57.28;101124.47;5054468;28;1350;-88
2022/03/04 15:20:51;;;;;;;;;;;;;;;5.54;57.72;101123.09;5056440;28;1961;-88
2022/03/04 17:37:34;;;;;;;;;;;;;;;3.13;63.06;101143.28;5074313;28;1160;-88
2022/03/04 17:40:00;;;;;;;;;;;;;;;3.06;63.14;101142.50;5068533;28;1905;-89
2022/03/04 17:42:26;;;;;;;;;;;;;;;3.08;63.37;101134.16;5067990;28;1242;-88
2022/03/04 17:44:51;;;;;;;;;;;;;;;3.09;63.19;101133.94;5055096;28;1225;-89
2022/03/04 17:47:17;;;;;;;;;;;;;;;3.10;63.00;101134.75;5053804;28;1229;-88
2022/03/04 17:49:42;;;;;;;;;;;;;;;3.11;63.60;101133.72;5056549;28;1614;-88
2022/03/04 17:52:07;;;;;;;;;;;;;;;3.07;62.93;101136.00;5074947;28;1274;-88
2022/03/04 17:54:34;;;;;;;;;;;;;;;2.99;63.36;101142.50;5074185;28;1234;-88
2022/03/04 17:56:59;;;;;;;;;;;;;;;2.97;63.18;101146.50;5071630;28;1391;-88
2022/03/04 17:59:24;;;;;;;;;;;;;;;3.06;63.77;101141.66;5075693;28;1959;-88
2022/03/04 18:01:49;;;;;;;;;;;;;;;3.07;63.47;101140.59;5074634;28;1222;-88
2022/03/04 18:04:14;;;;;;;;;;;;;;;2.96;63.14;101142.97;5074253;28;1222;-88